createdAt,value
2019-02-28T00:01:47.221Z,72.10
2019-02-28T00:04:17.940Z,76.53
2019-02-28T00:06:48.435Z,59.67
2019-02-28T00:09:18.927Z,76.03
2019-02-28T00:11:49.433Z,65.60
2019-02-28T00:14:19.989Z,66.43
2019-02-28T00:16:50.467Z,67.23
2019-02-28T00:19:23.634Z,77.70
2019-02-28T00:21:53.134Z,85.90
2019-02-28T00:24:23.654Z,69.13
2019-02-28T00:26:54.111Z,70.67
2019-02-28T00:29:24.667Z,75.23
2019-02-28T00:31:55.157Z,76.40
2019-02-28T00:34:25.647Z,92.47
2019-02-28T00:36:56.077Z,88.70
2019-02-28T00:39:26.593Z,85.93
2019-02-28T00:41:57.168Z,89.93
2019-02-28T00:44:30.403Z,96.27
2019-02-28T00:46:59.861Z,98.57
2019-02-28T00:49:30.312Z,116.97
2019-02-28T00:52:01.625Z,104.57
2019-02-28T00:54:32.948Z,109.33
2019-02-28T00:57:03.648Z,122.00
2019-02-28T00:59:34.112Z,117.20
2019-02-28T01:02:04.619Z,112.50
2019-02-28T01:04:35.054Z,131.40
2019-02-28T01:07:05.645Z,130.63
2019-02-28T01:09:36.139Z,126.67
2019-02-28T01:12:06.673Z,123.03
2019-02-28T01:14:37.249Z,143.83
2019-02-28T01:17:07.705Z,139.07
2019-02-28T01:19:41.349Z,135.63
2019-02-28T01:22:10.275Z,132.67
2019-02-28T01:24:40.715Z,133.17
2019-02-28T01:27:11.219Z,138.30
2019-02-28T01:29:41.661Z,137.57
2019-02-28T01:32:15.310Z,135.47
2019-02-28T01:34:44.243Z,134.13
2019-02-28T01:37:14.737Z,143.93
2019-02-28T01:39:45.182Z,146.43
2019-02-28T01:42:19.559Z,131.13
2019-02-28T01:44:47.839Z,133.30
2019-02-28T01:47:19.916Z,136.37
2019-02-28T01:49:50.606Z,139.00
2019-02-28T01:52:21.089Z,130.83
2019-02-28T01:54:51.648Z,134.80
2019-02-28T01:57:22.045Z,140.40
2019-02-28T01:59:53.105Z,132.70
2019-02-28T02:02:24.139Z,140.90
2019-02-28T02:04:55.001Z,136.23
2019-02-28T02:07:25.516Z,119.93
2019-02-28T02:09:56.641Z,128.33
2019-02-28T02:12:31.288Z,115.20
2019-02-28T02:14:59.340Z,127.80
2019-02-28T02:17:32.258Z,123.43
2019-02-28T02:20:01.911Z,126.23
2019-02-28T02:22:32.749Z,108.30
2019-02-28T02:25:04.237Z,120.20
2019-02-28T02:27:34.790Z,115.00
2019-02-28T02:30:13.549Z,122.50
2019-02-28T02:32:39.815Z,104.33
2019-02-28T02:35:10.513Z,114.77
2019-02-28T02:37:40.918Z,109.97
2019-02-28T02:40:11.946Z,122.13
2019-02-28T02:42:47.227Z,117.03
2019-02-28T02:45:14.669Z,115.47
2019-02-28T02:47:45.220Z,112.47
2019-02-28T02:50:15.817Z,106.57
2019-02-28T02:52:46.285Z,115.80
2019-02-28T02:55:16.729Z,116.47
2019-02-28T02:57:50.915Z,110.57
2019-02-28T03:00:19.807Z,103.63
2019-02-28T03:02:50.347Z,107.43
2019-02-28T03:05:20.827Z,99.30
2019-02-28T03:07:51.370Z,111.80
2019-02-28T03:10:21.928Z,108.30
2019-02-28T03:12:52.517Z,102.33
2019-02-28T03:15:26.878Z,113.33
2019-02-28T03:17:55.041Z,99.17
2019-02-28T03:20:25.538Z,91.57
2019-02-28T03:22:56.121Z,98.17
2019-02-28T03:25:28.229Z,96.53
2019-02-28T03:27:58.832Z,97.37
2019-02-28T03:30:32.874Z,93.83
2019-02-28T03:33:02.050Z,94.50
2019-02-28T03:35:43.440Z,91.67
2019-02-28T03:38:10.482Z,94.23
2019-02-28T03:40:40.264Z,88.70
2019-02-28T03:43:09.174Z,87.60
2019-02-28T03:45:39.616Z,102.27
2019-02-28T03:48:10.162Z,102.57
2019-02-28T03:50:40.571Z,98.13
2019-02-28T03:53:10.996Z,90.10
2019-02-28T03:55:41.645Z,91.13
2019-02-28T03:58:12.358Z,97.37
2019-02-28T04:00:42.993Z,93.17
2019-02-28T04:03:13.419Z,91.40
2019-02-28T04:05:44.000Z,90.10
2019-02-28T04:08:14.548Z,93.83
2019-02-28T04:10:45.124Z,89.93
2019-02-28T04:13:19.229Z,91.77
2019-02-28T04:16:07.735Z,92.90
2019-02-28T04:18:20.197Z,87.90
2019-02-28T04:20:50.667Z,80.83
2019-02-28T04:23:21.130Z,79.30
2019-02-28T04:25:51.554Z,87.53
2019-02-28T04:28:22.109Z,84.27
2019-02-28T04:30:52.529Z,91.63
2019-02-28T04:33:23.081Z,86.40
2019-02-28T04:35:56.926Z,86.10
2019-02-28T04:38:25.570Z,89.47
2019-02-28T04:40:58.834Z,80.57
2019-02-28T04:43:28.215Z,84.97
2019-02-28T04:45:58.714Z,74.97
2019-02-28T04:48:29.193Z,83.30
2019-02-28T04:51:02.271Z,77.90
2019-02-28T04:53:31.683Z,86.53
2019-02-28T04:56:02.197Z,75.97
2019-02-28T04:58:32.656Z,80.97
2019-02-28T05:01:03.127Z,68.80
2019-02-28T05:03:33.635Z,67.13
2019-02-28T05:06:04.144Z,55.27
2019-02-28T05:08:38.596Z,61.10
2019-02-28T05:11:07.107Z,50.33
2019-02-28T05:13:37.578Z,53.73
2019-02-28T05:16:09.340Z,59.03
2019-02-28T05:18:40.506Z,54.10
2019-02-28T05:21:11.043Z,65.07
2019-02-28T05:23:41.659Z,64.13
2019-02-28T05:26:12.281Z,72.50
2019-02-28T05:28:42.976Z,67.47
2019-02-28T05:31:13.628Z,59.67
2019-02-28T05:33:44.191Z,56.33
2019-02-28T05:36:14.616Z,59.30
2019-02-28T05:38:45.226Z,63.10
2019-02-28T05:41:16.044Z,49.70
2019-02-28T05:43:46.660Z,52.67
2019-02-28T05:46:20.346Z,54.20
2019-02-28T05:48:49.427Z,42.93
2019-02-28T05:51:20.823Z,47.77
2019-02-28T05:53:51.238Z,42.70
2019-02-28T05:56:21.664Z,48.17
2019-02-28T05:58:52.513Z,44.60
2019-02-28T06:01:23.660Z,40.23
2019-02-28T06:03:54.282Z,40.67
2019-02-28T06:06:24.896Z,38.97
2019-02-28T06:08:55.364Z,39.60
2019-02-28T06:11:25.883Z,36.10
2019-02-28T06:13:56.265Z,36.77
2019-02-28T06:16:28.191Z,47.70
2019-02-28T06:18:58.688Z,34.20
2019-02-28T06:21:29.283Z,35.50
2019-02-28T06:23:59.778Z,31.67
2019-02-28T06:26:31.902Z,34.43
2019-02-28T06:29:04.971Z,32.43
2019-02-28T06:31:34.856Z,31.73
2019-02-28T06:34:05.631Z,29.47
2019-02-28T06:36:37.529Z,42.90
2019-02-28T06:39:08.496Z,32.20
2019-02-28T06:41:39.840Z,37.07
2019-02-28T06:44:11.203Z,32.03
2019-02-28T06:46:42.818Z,33.60
2019-02-28T06:49:14.931Z,39.70
2019-02-28T06:51:48.457Z,34.40
2019-02-28T06:54:17.624Z,35.00
2019-02-28T06:56:48.052Z,37.73
2019-02-28T06:59:18.579Z,31.10
2019-02-28T07:01:49.067Z,37.63
2019-02-28T07:04:19.530Z,31.47
2019-02-28T07:06:50.058Z,31.30
2019-02-28T07:09:20.558Z,33.97
2019-02-28T07:11:51.282Z,31.50
2019-02-28T07:14:23.288Z,34.60
2019-02-28T07:16:53.853Z,30.40
2019-02-28T07:19:26.302Z,25.80
2019-02-28T07:21:56.518Z,28.33
2019-02-28T07:24:26.998Z,32.53
2019-02-28T07:26:58.627Z,28.73
2019-02-28T07:29:29.172Z,25.97
2019-02-28T07:32:01.319Z,33.30
2019-02-28T07:34:32.907Z,29.70
2019-02-28T07:37:03.563Z,38.27
2019-02-28T07:39:36.500Z,33.97
2019-02-28T07:42:06.216Z,29.90
2019-02-28T07:44:38.059Z,35.13
2019-02-28T07:47:08.602Z,33.47
2019-02-28T07:49:40.178Z,32.77
2019-02-28T07:52:10.698Z,31.43
2019-02-28T07:54:41.204Z,27.47
2019-02-28T07:57:17.000Z,33.87
2019-02-28T07:59:44.880Z,31.20
2019-02-28T08:02:15.560Z,29.33
2019-02-28T08:04:46.084Z,32.03
2019-02-28T08:07:16.640Z,37.53
2019-02-28T08:09:47.257Z,32.10
2019-02-28T08:12:17.794Z,25.73
2019-02-28T08:14:48.317Z,32.90
2019-02-28T08:17:18.902Z,24.37
2019-02-28T08:19:49.496Z,22.90
2019-02-28T08:22:24.366Z,28.03
2019-02-28T08:24:52.216Z,27.77
2019-02-28T08:27:25.404Z,26.20
2019-02-28T08:29:55.990Z,26.13
2019-02-28T08:32:26.752Z,26.77
2019-02-28T08:34:59.403Z,27.97
2019-02-28T08:37:29.676Z,30.80
2019-02-28T08:40:00.335Z,23.80
2019-02-28T08:42:32.482Z,25.77
2019-02-28T08:45:04.163Z,24.57
2019-02-28T08:47:34.872Z,26.57
2019-02-28T08:50:06.775Z,27.70
2019-02-28T08:52:37.596Z,26.97
2019-02-28T08:55:11.482Z,31.30
2019-02-28T08:57:42.022Z,25.27
2019-02-28T09:00:15.218Z,25.03
2019-02-28T09:02:45.848Z,28.20
2019-02-28T09:05:17.506Z,26.40
2019-02-28T09:07:51.288Z,32.37
2019-02-28T09:10:20.637Z,52.70
2019-02-28T09:12:51.533Z,37.40
2019-02-28T09:15:22.332Z,31.10
2019-02-28T09:17:58.161Z,41.17
2019-02-28T09:20:25.083Z,29.07
2019-02-28T09:23:01.780Z,41.47
2019-02-28T09:25:27.860Z,31.83
2019-02-28T09:27:58.429Z,32.70
2019-02-28T09:30:34.672Z,34.53
2019-02-28T09:33:05.328Z,36.70
2019-02-28T09:35:35.808Z,33.37
2019-02-28T09:38:09.680Z,40.93
2019-02-28T09:40:38.640Z,28.83
2019-02-28T09:43:09.162Z,40.80
2019-02-28T09:45:41.016Z,32.13
2019-02-28T09:48:11.602Z,44.77
2019-02-28T09:50:42.028Z,33.53
2019-02-28T09:53:15.490Z,38.60
2019-02-28T09:55:44.741Z,34.57
2019-02-28T09:58:15.285Z,60.57
2019-02-28T10:00:46.938Z,70.07
2019-02-28T10:03:18.647Z,48.47
2019-02-28T10:05:49.924Z,52.83
2019-02-28T10:08:21.797Z,40.53
2019-02-28T10:10:55.740Z,54.03
2019-02-28T10:13:24.708Z,55.53
2019-02-28T10:15:55.234Z,64.40
2019-02-28T10:18:25.834Z,59.17
2019-02-28T10:20:59.021Z,50.47
2019-02-28T10:23:28.472Z,53.83
2019-02-28T10:25:58.981Z,45.40
2019-02-28T10:28:29.552Z,60.87
2019-02-28T10:30:59.998Z,50.03
2019-02-28T10:33:30.556Z,43.97
2019-02-28T10:36:01.144Z,62.63
2019-02-28T10:38:32.942Z,47.27
2019-02-28T10:41:04.105Z,54.00
2019-02-28T10:43:34.709Z,45.53
2019-02-28T10:46:05.248Z,48.33
2019-02-28T10:48:41.949Z,41.63
2019-02-28T10:51:13.894Z,42.60
2019-02-28T10:53:40.301Z,47.30
2019-02-28T10:56:10.910Z,49.13
2019-02-28T10:58:41.422Z,51.40
2019-02-28T11:01:13.102Z,78.20
2019-02-28T11:03:43.680Z,49.63
2019-02-28T11:06:14.220Z,37.03
2019-02-28T11:08:47.474Z,44.70
2019-02-28T11:11:17.989Z,49.20
2019-02-28T11:13:49.589Z,41.57
2019-02-28T11:16:20.496Z,47.03
2019-02-28T11:18:52.396Z,46.53
2019-02-28T11:21:23.058Z,40.27
2019-02-28T11:23:53.741Z,43.53
2019-02-28T11:26:24.218Z,40.27
2019-02-28T11:28:54.812Z,37.47
2019-02-28T11:31:25.834Z,44.07
2019-02-28T11:33:56.402Z,38.47
2019-02-28T11:36:26.975Z,36.90
2019-02-28T11:38:57.500Z,35.73
2019-02-28T11:41:28.118Z,41.33
2019-02-28T11:43:59.146Z,34.57
2019-02-28T11:46:29.852Z,38.23
2019-02-28T11:49:00.410Z,35.57
2019-02-28T11:51:31.068Z,40.00
2019-02-28T11:54:01.658Z,29.77
2019-02-28T11:56:32.387Z,30.43
2019-02-28T11:59:03.113Z,27.90
2019-02-28T12:01:33.697Z,31.40
2019-02-28T12:04:04.448Z,29.73
2019-02-28T12:06:34.989Z,29.77
2019-02-28T12:09:07.430Z,29.87
2019-02-28T12:11:38.515Z,30.20
2019-02-28T12:14:08.978Z,31.90
2019-02-28T12:16:39.502Z,28.00
2019-02-28T12:19:12.463Z,25.90
2019-02-28T12:21:42.317Z,29.67
2019-02-28T12:24:12.836Z,23.97
2019-02-28T12:26:43.312Z,24.53
2019-02-28T12:29:13.870Z,25.30
2019-02-28T12:31:45.471Z,24.57
2019-02-28T12:34:16.025Z,26.37
2019-02-28T12:36:49.356Z,34.33
2019-02-28T12:39:18.769Z,32.37
2019-02-28T12:41:49.366Z,27.37
2019-02-28T12:44:19.822Z,23.63
2019-02-28T12:46:50.400Z,26.90
2019-02-28T12:49:22.358Z,30.07
2019-02-28T12:51:53.062Z,27.60
2019-02-28T12:54:23.722Z,27.33
2019-02-28T12:56:54.163Z,33.83
2019-02-28T12:59:24.736Z,38.43
2019-02-28T13:01:55.263Z,25.63
2019-02-28T13:04:25.817Z,33.80
2019-02-28T13:06:58.829Z,27.57
2019-02-28T13:09:30.190Z,35.00
2019-02-28T13:12:00.748Z,31.70
2019-02-28T13:14:31.228Z,40.13
2019-02-28T13:17:01.875Z,31.07
2019-02-28T13:19:32.650Z,29.70
2019-02-28T13:22:03.261Z,27.57
2019-02-28T13:24:35.385Z,36.57
2019-02-28T13:27:09.775Z,32.53
2019-02-28T13:29:38.259Z,33.20
2019-02-28T13:32:08.835Z,32.23
2019-02-28T13:34:39.430Z,31.83
2019-02-28T13:37:10.024Z,31.60
2019-02-28T13:39:40.487Z,29.30
2019-02-28T13:42:11.154Z,25.60
2019-02-28T13:44:41.645Z,23.70
2019-02-28T13:47:12.308Z,32.30
2019-02-28T13:49:42.958Z,29.97
2019-02-28T13:52:20.339Z,32.43
2019-02-28T13:54:48.079Z,24.57
2019-02-28T13:57:18.725Z,29.23
2019-02-28T13:59:49.379Z,28.83
2019-02-28T14:02:20.964Z,31.10
2019-02-28T14:04:51.495Z,28.07
2019-02-28T14:07:21.998Z,31.47
2019-02-28T14:09:56.853Z,29.47
2019-02-28T14:12:25.765Z,28.90
2019-02-28T14:14:56.417Z,29.57
2019-02-28T14:17:27.203Z,28.90
2019-02-28T14:19:57.801Z,32.57
2019-02-28T14:22:28.326Z,35.60
2019-02-28T14:24:58.979Z,30.20
2019-02-28T14:27:30.658Z,29.13
2019-02-28T14:30:01.302Z,26.60
2019-02-28T14:32:32.145Z,34.13
2019-02-28T14:35:02.723Z,31.10
2019-02-28T14:37:33.797Z,31.50
2019-02-28T14:40:05.461Z,30.30
2019-02-28T14:42:36.274Z,33.67
2019-02-28T14:45:08.261Z,35.77
2019-02-28T14:47:38.901Z,34.27
2019-02-28T14:50:10.695Z,31.97
2019-02-28T14:52:41.383Z,37.37
2019-02-28T14:55:14.272Z,48.17
2019-02-28T14:57:44.951Z,39.60
2019-02-28T15:00:17.603Z,36.37
2019-02-28T15:02:48.291Z,40.90
2019-02-28T15:05:20.475Z,39.03
2019-02-28T15:07:51.097Z,38.53
2019-02-28T15:10:21.729Z,33.87
2019-02-28T15:12:55.262Z,36.13
2019-02-28T15:15:25.742Z,40.57
2019-02-28T15:17:56.249Z,37.23
2019-02-28T15:20:31.591Z,33.87
2019-02-28T15:22:59.674Z,33.23
2019-02-28T15:25:30.593Z,38.13
2019-02-28T15:28:01.167Z,35.90
2019-02-28T15:30:33.874Z,40.33
2019-02-28T15:33:04.736Z,35.20
2019-02-28T15:35:35.404Z,41.50
2019-02-28T15:38:09.233Z,33.77
2019-02-28T15:40:40.343Z,37.40
2019-02-28T15:43:10.484Z,35.37
2019-02-28T15:45:41.215Z,37.27
2019-02-28T15:48:11.716Z,48.37
2019-02-28T15:50:42.312Z,42.60
2019-02-28T15:53:15.192Z,48.20
2019-02-28T15:55:45.686Z,40.67
2019-02-28T15:58:16.754Z,39.10
2019-02-28T16:00:48.277Z,36.93
2019-02-28T16:03:18.742Z,46.13
2019-02-28T16:05:49.227Z,41.73
2019-02-28T16:08:19.735Z,46.50
2019-02-28T16:10:53.584Z,45.33
2019-02-28T16:13:25.889Z,41.97
2019-02-28T16:15:55.092Z,41.67
2019-02-28T16:18:25.986Z,44.50
2019-02-28T16:20:56.692Z,44.67
2019-02-28T16:23:30.767Z,47.67
2019-02-28T16:25:59.832Z,48.07
2019-02-28T16:28:30.340Z,44.47
2019-02-28T16:31:03.230Z,52.20
2019-02-28T16:33:33.379Z,50.63
2019-02-28T16:36:05.667Z,49.30
2019-02-28T16:38:36.400Z,49.70
2019-02-28T16:41:07.105Z,56.83
2019-02-28T16:43:37.805Z,59.97
2019-02-28T16:46:12.362Z,53.37
2019-02-28T16:48:41.764Z,57.67
2019-02-28T16:51:12.488Z,57.67
2019-02-28T16:53:43.286Z,52.63
2019-02-28T16:56:15.815Z,47.87
2019-02-28T16:58:46.040Z,53.30
2019-02-28T17:01:17.573Z,54.63
2019-02-28T17:03:49.090Z,54.50
2019-02-28T17:06:19.733Z,49.13
2019-02-28T17:09:30.305Z,54.80
2019-02-28T17:12:23.617Z,50.27
2019-02-28T17:14:54.344Z,51.40
2019-02-28T17:17:29.979Z,54.17
2019-02-28T17:20:02.929Z,49.00
2019-02-28T17:22:33.361Z,56.47
2019-02-28T17:25:04.105Z,58.47
2019-02-28T17:27:42.490Z,58.27
2019-02-28T17:30:37.750Z,62.23
2019-02-28T17:33:09.095Z,57.77
2019-02-28T17:35:40.354Z,56.27
2019-02-28T17:38:12.003Z,60.63
2019-02-28T17:40:42.565Z,67.33
2019-02-28T17:43:13.311Z,60.87
2019-02-28T17:45:43.748Z,66.00
2019-02-28T17:48:55.430Z,64.27
2019-02-28T17:51:33.336Z,70.17
2019-02-28T17:54:59.675Z,71.07
2019-02-28T17:58:04.502Z,79.57
2019-02-28T18:01:08.260Z,82.43
2019-02-28T18:04:08.234Z,83.33
2019-02-28T18:07:26.601Z,93.83
2019-02-28T18:10:37.065Z,85.43
2019-02-28T18:13:41.939Z,84.97
2019-02-28T18:16:38.684Z,89.97
2019-02-28T18:19:59.097Z,86.97
2019-02-28T18:22:54.677Z,83.23
2019-02-28T18:25:59.596Z,81.07
2019-02-28T18:29:02.357Z,80.23
2019-02-28T18:31:32.956Z,77.07
2019-02-28T18:34:20.594Z,72.93
2019-02-28T18:36:51.343Z,76.77
2019-02-28T18:39:21.864Z,74.57
2019-02-28T18:41:52.543Z,76.37
2019-02-28T18:44:23.111Z,83.90
2019-02-28T18:46:53.680Z,84.63
2019-02-28T18:49:26.591Z,90.77
2019-02-28T18:51:56.275Z,84.13
2019-02-28T18:54:26.791Z,72.93
2019-02-28T18:56:57.484Z,80.90
2019-02-28T18:59:28.044Z,92.17
2019-02-28T19:02:36.651Z,98.20
2019-02-28T19:05:07.306Z,89.00
2019-02-28T19:07:37.821Z,88.67
2019-02-28T19:10:08.643Z,91.83
2019-02-28T19:12:39.281Z,90.37
2019-02-28T19:15:09.950Z,92.40
2019-02-28T19:17:40.477Z,96.83
2019-02-28T19:20:11.126Z,95.40
2019-02-28T19:22:41.583Z,94.63
2019-02-28T19:25:12.116Z,92.90
2019-02-28T19:27:42.783Z,88.27
2019-02-28T19:30:13.658Z,86.63
2019-02-28T19:32:44.224Z,88.53
2019-02-28T19:35:16.421Z,85.27
2019-02-28T19:37:47.067Z,81.97
2019-02-28T19:40:17.599Z,76.37
2019-02-28T19:42:48.097Z,75.87
2019-02-28T19:45:18.809Z,81.27
2019-02-28T19:47:49.368Z,88.93
2019-02-28T19:50:19.866Z,96.50
2019-02-28T19:52:50.421Z,106.27
2019-02-28T19:55:20.929Z,103.77
2019-02-28T19:57:51.559Z,88.73
2019-02-28T20:00:25.041Z,98.03
2019-02-28T20:02:55.746Z,92.77
2019-02-28T20:05:26.357Z,100.53
2019-02-28T20:07:56.955Z,91.93
2019-02-28T20:10:27.526Z,108.40
2019-02-28T20:12:58.111Z,87.53
2019-02-28T20:15:29.870Z,83.13
2019-02-28T20:18:00.453Z,79.70
2019-02-28T20:20:31.060Z,80.63
2019-02-28T20:23:01.505Z,76.70
2019-02-28T20:25:32.064Z,77.37
2019-02-28T20:28:02.599Z,76.37
2019-02-28T20:30:33.334Z,74.90
2019-02-28T20:33:04.022Z,75.20
2019-02-28T20:35:34.621Z,80.00
2019-02-28T20:38:05.137Z,77.50
2019-02-28T20:40:35.709Z,71.63
2019-02-28T20:43:06.259Z,80.43
2019-02-28T20:45:36.871Z,72.20
2019-02-28T20:48:07.299Z,88.33
2019-02-28T20:50:40.185Z,74.53
2019-02-28T20:53:11.794Z,76.03
2019-02-28T20:55:42.353Z,71.93
2019-02-28T20:58:12.817Z,81.13
2019-02-28T21:00:43.351Z,76.43
2019-02-28T21:03:13.880Z,87.23
2019-02-28T21:05:44.442Z,87.73
2019-02-28T21:08:15.014Z,87.27
2019-02-28T21:10:45.579Z,72.50
2019-02-28T21:13:17.112Z,76.20
2019-02-28T21:15:51.640Z,74.03
2019-02-28T21:18:22.160Z,80.10
2019-02-28T21:20:52.689Z,83.50
2019-02-28T21:23:23.224Z,83.80
2019-02-28T21:25:54.323Z,86.60
2019-02-28T21:28:25.051Z,80.77
2019-02-28T21:30:55.621Z,79.60
2019-02-28T21:33:26.188Z,83.67
2019-02-28T21:35:57.934Z,79.20
2019-02-28T21:38:29.673Z,88.37
2019-02-28T21:41:00.460Z,81.90
2019-02-28T21:43:31.200Z,84.20
2019-02-28T21:46:02.081Z,88.40
2019-02-28T21:48:32.717Z,90.73
2019-02-28T21:51:06.198Z,92.63
2019-02-28T21:53:36.738Z,92.30
2019-02-28T21:56:07.198Z,85.33
2019-02-28T21:58:37.714Z,96.67
2019-02-28T22:01:08.424Z,90.30
2019-02-28T22:03:39.008Z,87.83
2019-02-28T22:06:09.550Z,89.83
2019-02-28T22:08:40.133Z,96.97
2019-02-28T22:11:10.568Z,94.10
2019-02-28T22:13:41.087Z,92.47
2019-02-28T22:16:11.543Z,101.33
2019-02-28T22:18:42.070Z,100.67
2019-02-28T22:21:12.573Z,103.60
2019-02-28T22:23:43.164Z,106.07
2019-02-28T22:26:13.613Z,90.97
2019-02-28T22:28:44.100Z,98.20
2019-02-28T22:31:32.523Z,96.43
2019-02-28T22:34:34.228Z,98.07
2019-02-28T22:37:04.709Z,97.80
2019-02-28T22:39:35.133Z,100.43
2019-02-28T22:42:05.705Z,110.90
2019-02-28T22:44:36.168Z,110.30
2019-02-28T22:47:06.847Z,109.70
2019-02-28T22:49:37.337Z,103.37
2019-02-28T22:52:07.806Z,107.33
2019-02-28T22:54:38.265Z,119.43
2019-02-28T22:57:08.742Z,130.03
2019-02-28T22:59:39.202Z,119.87
2019-02-28T23:02:09.753Z,125.77
2019-02-28T23:04:40.340Z,125.80
2019-02-28T23:07:10.938Z,143.40
2019-02-28T23:09:41.428Z,137.50
2019-02-28T23:12:11.796Z,139.10
2019-02-28T23:14:42.329Z,134.80
2019-02-28T23:17:12.790Z,126.13
2019-02-28T23:19:43.308Z,135.73
2019-02-28T23:22:13.679Z,128.73
2019-02-28T23:24:44.242Z,129.80
2019-02-28T23:27:19.064Z,133.77
2019-02-28T23:30:35.776Z,136.90
2019-02-28T23:33:13.190Z,130.97
2019-02-28T23:35:45.681Z,135.63
2019-02-28T23:38:16.139Z,138.90
2019-02-28T23:40:46.636Z,140.73
2019-02-28T23:43:17.138Z,137.67
2019-02-28T23:45:47.625Z,136.93
2019-02-28T23:48:19.769Z,141.33
2019-02-28T23:50:50.225Z,145.27
2019-02-28T23:53:20.709Z,140.23
2019-02-28T23:55:51.199Z,136.57
2019-02-28T23:58:21.724Z,135.23
